02:14
Airports
History
Links
Donate
Help keep this website running!
PayPal
Bitcoin
This page is community maintained. The information is intended for PC simulator navigation or reference.
Always use approved charts for navigation.
VEAT
AGARTALA
AGARTALA (VEAT)
Agartala, Tripura, India (799009)
(C)
Lat/Lng:23° 53' 13.12" N / 91° 14' 25.62" E
23.886978 / 91.240449
Elevation:46'ft / 14mMSL
ID / ICAO:VEAT
Runways:1
Longest:18-36
Asphalt 2,285m / 7,498ft
Controlled:Yes
METAR12:30 GMT 2017-09-19
Altimeter: 29.59
Visibility: 1.6 statute miles
Wind: 3 knots (from 090°)
Temp: 26°c / 79°f
Humidity: 94.2%

METAR: VEAT 191230Z 09003KT 2500 -TSRA FEW008 SCT016 FEW030CB OVC090 26/25 Q1002 NOSIG

(Powered by phpweather)
Airport Radio Frequencies
Tower: 122.7, 123.5
Nearby VORs <50NM
Nearby NDBs
Runway 18 / 36
Dimensions:2285.3 x 45.1m 7498' x 148'ft
Surface:Asphalt
Edge Lights:High intensity
Runway 18 [A]Runway 36 [B]
Heading:184°TH 004°TH
Lat:
Lng:
23° 53' 50.13"N
91° 14' 28.53"E
23° 52' 36.11"N
91° 14' 22.7"E
ALS:SALSSALS
User Notes and Comments
23° 53' 13.12" N / 91° 14' 25.62" E
Distance To
Airport ID:
Nearby Airports
(C) ZIA INTL 53.3 NM
VGZR ( WX ) W 266°
(C) TEJGAON 54.7 NM
VGTJ W 262°
(C) KAILASHAHAR 56.4 NM
VEKR ENE 58°
(C) OSMANY INTL 84.2 NM
VGSY NNE 27°
(C) LENGPUI 87.2 NM
VELP E 92°
(C) BARISAL 95.8 NM
VGBR SW 218°
(C) AIZAWL 99.2 NM
VEAZ E 95°
VFR Chart
Flight Planning at SkyVector.com